Pagrindinis puslapis
METAR-TAF:

METAR-TAF

Oro uostai :

Stord, Norvegija

platuma: 59-48N, ilguma: 005-21E, Aukštis: 49 m

Dabartinis oras

Ataskaita buvo paskelbta 17 valandos ir 15 minutes, ne 16:20 UTC
Vėjas 10 kt iš Šiaurės Vakarų
Temperatūra 18°C
Drėgmė 73%
Slėgis 999 hPa
Matomumas 10 km arba daugiau
Mažai debesys ne aukštis 1600 ft

METAR: ENSO 301620Z 32010KT 9999 FEW016 18/13 Q0999

Laikas: 11:35 (09:35 UTC)

Prognozė

Ataskaita buvo paskelbta 25 valandos ir 35 minutes, ne 08:00 UTC
Prognozė galioja nuo 30 metu 09 UTC su 30 metu 12 UTC
Vėjas 5 kt nuo kintamojo kryptimis
Matomumas 10 km arba daugiau
Išsisklaidę debesys ne aukštis 1000 ft
Su prošvaistėmis ne aukštis 2000 ft
Tikimybė 40% :
Laikinai
nuo 30 metu 09 UTC su 30 metu 11 UTC
Matomumas: 4000 m
Su prošvaistėmis ne aukštis 700 ft
dulksna, rūkana
Tapsmas
nuo 30 metu 10 UTC su 30 metu 12 UTC
Vėjas 10 kt iš Vakarų/Šiaurės Vakarų

TAF: ENSO 300800Z 3009/3012 VRB05KT 9999 SCT010 BKN020 PROB40 TEMPO 3009/3011 4000 -DZ BR BKN007 BECMG 3010/3012 30010KT

Orai ataskaitas ir orų prognozės (METAR, TAF).

turimą stotys yra geltonos ir raudonos taškus žemėlapyje.

Perkelti pele per norėdami pamatyti stoties vardą.

Tada spustelėkite, norėdami matyti oro stebėjimo ir prognozės.

Norėdami pakeisti žemėlapį: spustelėkite ant žalios mygtukų su juodo kryžiaus žemyn,; žalią mygtuką su brūkšneliu, jei norite nutolinti; arba žalių rodyklių gretimoms žemėlapius.


METAR-TAF: